Time,TemperatureF,DewpointF,PressureIn,WindDirection,WindDirectionDegrees,WindSpeedMPH,WindSpeedGustMPH,Humidity,HourlyPrecipIn,Conditions,Clouds,dailyrainin,SoftwareType,DateUTC
2013-10-26 00:01:00,36.5,25.9,30.01,North,-999,-999.0,-999.0,65,-99.99,,,-99.99,meteohub,2013-10-26 04:01:00,
2013-10-26 00:02:00,36.5,25.9,30.01,North,-999,-999.0,-999.0,65,-99.99,,,-99.99,meteohub,2013-10-26 04:02:00,
2013-10-26 00:04:00,36.5,25.9,30.01,North,-999,-999.0,-999.0,65,-99.99,,,-99.99,meteohub,2013-10-26 04:04:00,
2013-10-26 00:09:00,36.1,25.5,30.01,North,-999,-999.0,-999.0,65,-99.99,,,-99.99,meteohub,2013-10-26 04:09:00,
2013-10-26 00:14:00,35.8,25.2,30.01,North,-999,-999.0,-999.0,65,-99.99,,,-99.99,meteohub,2013-10-26 04:14:00,
2013-10-26 00:19:00,35.8,25.5,30.01,North,-999,-999.0,-999.0,66,-99.99,,,-99.99,meteohub,2013-10-26 04:19:00,
2013-10-26 00:24:00,35.6,25.7,30.01,North,-999,-999.0,-999.0,67,-99.99,,,-99.99,meteohub,2013-10-26 04:24:00,
2013-10-26 00:29:00,35.6,25.7,30.01,North,-999,-999.0,-999.0,67,-99.99,,,-99.99,meteohub,2013-10-26 04:29:00,
2013-10-26 00:35:00,35.6,25.7,30.01,North,-999,-999.0,-999.0,67,-99.99,,,-99.99,meteohub,2013-10-26 04:35:00,
2013-10-26 00:40:00,35.6,25.7,30.01,North,-999,-999.0,-999.0,67,-99.99,,,-99.99,meteohub,2013-10-26 04:40:00,
2013-10-26 00:45:00,35.6,26.1,30.01,North,-999,-999.0,-999.0,68,-99.99,,,-99.99,meteohub,2013-10-26 04:45:00,
2013-10-26 00:50:00,35.6,26.1,30.01,North,-999,-999.0,-999.0,68,-99.99,,,-99.99,meteohub,2013-10-26 04:50:00,
2013-10-26 00:55:00,35.6,26.1,30.01,North,-999,-999.0,-999.0,68,-99.99,,,-99.99,meteohub,2013-10-26 04:55:00,
2013-10-26 01:00:00,35.4,26.2,30.01,North,-999,-999.0,-999.0,69,-99.99,,,-99.99,meteohub,2013-10-26 05:00:00,
2013-10-26 01:06:00,35.2,26.1,30.01,North,-999,-999.0,-999.0,69,-99.99,,,-99.99,meteohub,2013-10-26 05:06:00,
2013-10-26 01:11:00,35.1,25.9,30.01,North,-999,-999.0,-999.0,69,-99.99,,,-99.99,meteohub,2013-10-26 05:11:00,
2013-10-26 01:16:00,35.2,26.1,30.01,North,-999,-999.0,-999.0,69,-99.99,,,-99.99,meteohub,2013-10-26 05:16:00,
2013-10-26 01:21:00,35.1,25.9,30.01,North,-999,-999.0,-999.0,69,-99.99,,,-99.99,meteohub,2013-10-26 05:21:00,
2013-10-26 01:26:00,35.1,26.2,30.01,North,-999,-999.0,-999.0,70,-99.99,,,-99.99,meteohub,2013-10-26 05:26:00,
2013-10-26 01:31:00,34.9,26.1,30.01,North,-999,-999.0,-999.0,70,-99.99,,,-99.99,meteohub,2013-10-26 05:31:00,
2013-10-26 01:37:00,34.7,25.9,29.99,North,-999,-999.0,-999.0,70,-99.99,,,-99.99,meteohub,2013-10-26 05:37:00,
2013-10-26 01:42:00,34.5,25.7,29.99,North,-999,-999.0,-999.0,70,-99.99,,,-99.99,meteohub,2013-10-26 05:42:00,
2013-10-26 01:47:00,34.5,25.7,29.99,North,-999,-999.0,-999.0,70,-99.99,,,-99.99,meteohub,2013-10-26 05:47:00,
2013-10-26 01:52:00,34.3,25.5,29.99,North,-999,-999.0,-999.0,70,-99.99,,,-99.99,meteohub,2013-10-26 05:52:00,
2013-10-26 01:57:00,34.2,25.3,29.99,North,-999,-999.0,-999.0,70,-99.99,,,-99.99,meteohub,2013-10-26 05:57:00,
2013-10-26 02:02:00,34.2,25.3,29.99,North,-999,-999.0,-999.0,70,-99.99,,,-99.99,meteohub,2013-10-26 06:02:00,
2013-10-26 02:07:00,34.2,25.7,29.99,North,-999,-999.0,-999.0,71,-99.99,,,-99.99,meteohub,2013-10-26 06:07:00,
2013-10-26 02:13:00,34.0,25.3,29.99,North,-999,-999.0,-999.0,70,-99.99,,,-99.99,meteohub,2013-10-26 06:13:00,
2013-10-26 02:18:00,33.8,25.3,29.99,North,-999,-999.0,-999.0,71,-99.99,,,-99.99,meteohub,2013-10-26 06:18:00,
2013-10-26 02:23:00,33.8,25.3,29.99,North,-999,-999.0,-999.0,71,-99.99,,,-99.99,meteohub,2013-10-26 06:23:00,
2013-10-26 02:28:00,33.8,25.3,29.99,North,-999,-999.0,-999.0,71,-99.99,,,-99.99,meteohub,2013-10-26 06:28:00,
2013-10-26 02:33:00,33.6,25.3,29.99,North,-999,-999.0,-999.0,71,-99.99,,,-99.99,meteohub,2013-10-26 06:33:00,
2013-10-26 02:38:00,33.4,25.3,29.99,North,-999,-999.0,-999.0,72,-99.99,,,-99.99,meteohub,2013-10-26 06:38:00,
2013-10-26 02:43:00,33.4,25.3,29.99,North,-999,-999.0,-999.0,72,-99.99,,,-99.99,meteohub,2013-10-26 06:43:00,
2013-10-26 02:49:00,33.3,25.2,29.99,North,-999,-999.0,-999.0,72,-99.99,,,-99.99,meteohub,2013-10-26 06:49:00,
2013-10-26 02:54:00,33.3,25.2,29.99,North,-999,-999.0,-999.0,72,-99.99,,,-99.99,meteohub,2013-10-26 06:54:00,
2013-10-26 02:59:00,33.1,25.0,29.99,North,-999,-999.0,-999.0,72,-99.99,,,-99.99,meteohub,2013-10-26 06:59:00,
2013-10-26 03:04:00,33.1,25.3,29.96,North,-999,-999.0,-999.0,73,-99.99,,,-99.99,meteohub,2013-10-26 07:04:00,
2013-10-26 03:09:00,33.1,25.3,29.96,North,-999,-999.0,-999.0,73,-99.99,,,-99.99,meteohub,2013-10-26 07:09:00,
2013-10-26 03:14:00,32.9,25.0,29.96,North,-999,-999.0,-999.0,72,-99.99,,,-99.99,meteohub,2013-10-26 07:14:00,
2013-10-26 03:20:00,32.7,25.0,29.96,North,-999,-999.0,-999.0,73,-99.99,,,-99.99,meteohub,2013-10-26 07:20:00,
2013-10-26 03:25:00,32.7,25.0,29.96,North,-999,-999.0,-999.0,73,-99.99,,,-99.99,meteohub,2013-10-26 07:25:00,
2013-10-26 03:30:00,32.5,24.8,29.96,North,-999,-999.0,-999.0,73,-99.99,,,-99.99,meteohub,2013-10-26 07:30:00,
2013-10-26 03:35:00,32.5,24.8,29.96,North,-999,-999.0,-999.0,73,-99.99,,,-99.99,meteohub,2013-10-26 07:35:00,
2013-10-26 03:40:00,32.4,24.6,29.96,North,-999,-999.0,-999.0,73,-99.99,,,-99.99,meteohub,2013-10-26 07:40:00,
2013-10-26 03:45:00,32.4,24.6,29.96,North,-999,-999.0,-999.0,73,-99.99,,,-99.99,meteohub,2013-10-26 07:45:00,
2013-10-26 03:50:00,32.2,24.4,29.96,North,-999,-999.0,-999.0,73,-99.99,,,-99.99,meteohub,2013-10-26 07:50:00,
2013-10-26 03:55:00,32.2,24.4,29.96,North,-999,-999.0,-999.0,73,-99.99,,,-99.99,meteohub,2013-10-26 07:55:00,
2013-10-26 04:01:00,32.2,24.4,29.96,North,-999,-999.0,-999.0,73,-99.99,,,-99.99,meteohub,2013-10-26 08:01:00,
2013-10-26 04:06:00,32.2,24.8,29.96,North,-999,-999.0,-999.0,74,-99.99,,,-99.99,meteohub,2013-10-26 08:06:00,
2013-10-26 04:11:00,32.2,24.8,29.96,North,-999,-999.0,-999.0,74,-99.99,,,-99.99,meteohub,2013-10-26 08:11:00,
2013-10-26 04:16:00,32.2,24.8,29.96,North,-999,-999.0,-999.0,74,-99.99,,,-99.99,meteohub,2013-10-26 08:16:00,
2013-10-26 04:21:00,32.0,24.6,29.96,North,-999,-999.0,-999.0,74,-99.99,,,-99.99,meteohub,2013-10-26 08:21:00,
2013-10-26 04:26:00,32.2,24.8,29.96,North,-999,-999.0,-999.0,74,-99.99,,,-99.99,meteohub,2013-10-26 08:26:00,
2013-10-26 04:31:00,32.2,25.2,29.96,North,-999,-999.0,-999.0,75,-99.99,,,-99.99,meteohub,2013-10-26 08:31:00,
2013-10-26 04:37:00,32.0,24.6,29.96,North,-999,-999.0,-999.0,74,-99.99,,,-99.99,meteohub,2013-10-26 08:37:00,
2013-10-26 04:42:00,31.8,24.8,29.96,North,-999,-999.0,-999.0,75,-99.99,,,-99.99,meteohub,2013-10-26 08:42:00,
2013-10-26 04:47:00,31.6,24.3,29.96,North,-999,-999.0,-999.0,74,-99.99,,,-99.99,meteohub,2013-10-26 08:47:00,
2013-10-26 04:52:00,31.6,24.3,29.96,North,-999,-999.0,-999.0,74,-99.99,,,-99.99,meteohub,2013-10-26 08:52:00,
2013-10-26 04:57:00,31.6,24.6,29.96,North,-999,-999.0,-999.0,75,-99.99,,,-99.99,meteohub,2013-10-26 08:57:00,
2013-10-26 05:02:00,31.5,24.4,29.96,North,-999,-999.0,-999.0,75,-99.99,,,-99.99,meteohub,2013-10-26 09:02:00,
2013-10-26 05:07:00,31.5,24.8,29.96,North,-999,-999.0,-999.0,76,-99.99,,,-99.99,meteohub,2013-10-26 09:07:00,
2013-10-26 11:05:00,47.8,29.7,-100.00,North,-999,-999.0,-999.0,49,-99.99,,,-99.99,meteohub,2013-10-26 15:05:00,
2013-10-26 11:10:00,48.7,29.5,29.96,North,-999,-999.0,-999.0,47,-99.99,,,-99.99,meteohub,2013-10-26 15:10:00,
2013-10-26 11:15:00,49.3,28.9,29.96,North,-999,-999.0,-999.0,45,-99.99,,,-99.99,meteohub,2013-10-26 15:15:00,
2013-10-26 11:21:00,49.6,29.7,29.96,North,-999,-999.0,-999.0,46,-99.99,,,-99.99,meteohub,2013-10-26 15:21:00,
2013-10-26 11:26:00,50.2,29.7,29.96,North,-999,-999.0,-999.0,45,-99.99,,,-99.99,meteohub,2013-10-26 15:26:00,
2013-10-26 11:31:00,50.4,30.4,29.96,North,-999,-999.0,-999.0,46,-99.99,,,-99.99,meteohub,2013-10-26 15:31:00,
2013-10-26 11:36:00,50.7,30.7,29.96,North,-999,-999.0,-999.0,46,-99.99,,,-99.99,meteohub,2013-10-26 15:36:00,
2013-10-26 11:41:00,50.9,30.9,29.96,North,-999,-999.0,-999.0,46,-99.99,,,-99.99,meteohub,2013-10-26 15:41:00,
2013-10-26 11:47:00,51.4,28.0,29.96,North,-999,-999.0,-999.0,40,-99.99,,,-99.99,meteohub,2013-10-26 15:47:00,
2013-10-26 11:52:00,51.8,30.6,29.96,North,-999,-999.0,-999.0,44,-99.99,,,-99.99,meteohub,2013-10-26 15:52:00,
2013-10-26 11:57:00,51.8,27.0,29.96,North,-999,-999.0,-999.0,38,-99.99,,,-99.99,meteohub,2013-10-26 15:57:00,
2013-10-26 12:02:00,52.3,27.5,29.96,North,-999,-999.0,-999.0,38,-99.99,,,-99.99,meteohub,2013-10-26 16:02:00,
2013-10-26 12:07:00,52.9,28.0,29.96,North,-999,-999.0,-999.0,38,-99.99,,,-99.99,meteohub,2013-10-26 16:07:00,
2013-10-26 12:12:00,53.2,28.4,29.96,North,-999,-999.0,-999.0,38,-99.99,,,-99.99,meteohub,2013-10-26 16:12:00,
2013-10-26 12:17:00,54.3,28.6,29.96,North,-999,-999.0,-999.0,37,-99.99,,,-99.99,meteohub,2013-10-26 16:17:00,
2013-10-26 12:22:00,55.6,29.8,29.93,North,-999,-999.0,-999.0,37,-99.99,,,-99.99,meteohub,2013-10-26 16:22:00,
2013-10-26 12:27:00,56.3,31.1,29.93,North,-999,-999.0,-999.0,38,-99.99,,,-99.99,meteohub,2013-10-26 16:27:00,
2013-10-26 12:32:00,56.1,30.2,29.93,North,-999,-999.0,-999.0,37,-99.99,,,-99.99,meteohub,2013-10-26 16:32:00,
2013-10-26 12:37:00,55.9,29.5,29.93,North,-999,-999.0,-999.0,36,-99.99,,,-99.99,meteohub,2013-10-26 16:37:00,
2013-10-26 12:42:00,56.7,30.0,29.93,North,-999,-999.0,-999.0,36,-99.99,,,-99.99,meteohub,2013-10-26 16:42:00,
2013-10-26 12:47:00,57.0,30.4,29.93,North,-999,-999.0,-999.0,36,-99.99,,,-99.99,meteohub,2013-10-26 16:47:00,
2013-10-26 12:52:00,57.7,30.9,29.93,North,-999,-999.0,-999.0,36,-99.99,,,-99.99,meteohub,2013-10-26 16:52:00,
2013-10-26 12:57:00,58.3,31.5,29.93,North,-999,-999.0,-999.0,36,-99.99,,,-99.99,meteohub,2013-10-26 16:57:00,
2013-10-26 13:02:00,58.3,30.7,29.93,North,-999,-999.0,-999.0,35,-99.99,,,-99.99,meteohub,2013-10-26 17:02:00,
2013-10-26 13:07:00,58.3,30.7,29.93,North,-999,-999.0,-999.0,35,-99.99,,,-99.99,meteohub,2013-10-26 17:07:00,
2013-10-26 13:12:00,58.6,31.1,29.93,North,-999,-999.0,-999.0,35,-99.99,,,-99.99,meteohub,2013-10-26 17:12:00,
2013-10-26 13:18:00,58.8,31.3,29.93,North,-999,-999.0,-999.0,35,-99.99,,,-99.99,meteohub,2013-10-26 17:18:00,
2013-10-26 13:23:00,59.0,30.7,29.90,North,-999,-999.0,-999.0,34,-99.99,,,-99.99,meteohub,2013-10-26 17:23:00,
2013-10-26 13:28:00,59.2,30.9,29.90,North,-999,-999.0,-999.0,34,-99.99,,,-99.99,meteohub,2013-10-26 17:28:00,
2013-10-26 13:33:00,59.4,31.1,29.90,North,-999,-999.0,-999.0,34,-99.99,,,-99.99,meteohub,2013-10-26 17:33:00,
2013-10-26 13:38:00,59.7,31.3,29.90,North,-999,-999.0,-999.0,34,-99.99,,,-99.99,meteohub,2013-10-26 17:38:00,
2013-10-26 13:43:00,59.7,31.3,29.90,North,-999,-999.0,-999.0,34,-99.99,,,-99.99,meteohub,2013-10-26 17:43:00,
2013-10-26 13:49:00,59.7,31.3,29.90,North,-999,-999.0,-999.0,34,-99.99,,,-99.99,meteohub,2013-10-26 17:49:00,
2013-10-26 13:54:00,59.2,30.2,29.90,North,-999,-999.0,-999.0,33,-99.99,,,-99.99,meteohub,2013-10-26 17:54:00,
2013-10-26 13:59:00,59.4,29.5,29.90,North,-999,-999.0,-999.0,32,-99.99,,,-99.99,meteohub,2013-10-26 17:59:00,
2013-10-26 14:04:00,59.2,30.9,29.87,North,-999,-999.0,-999.0,34,-99.99,,,-99.99,meteohub,2013-10-26 18:04:00,
2013-10-26 14:09:00,59.2,30.2,29.87,North,-999,-999.0,-999.0,33,-99.99,,,-99.99,meteohub,2013-10-26 18:09:00,
2013-10-26 14:15:00,58.8,29.1,29.87,North,-999,-999.0,-999.0,32,-99.99,,,-99.99,meteohub,2013-10-26 18:15:00,
2013-10-26 14:20:00,59.4,30.4,29.87,North,-999,-999.0,-999.0,33,-99.99,,,-99.99,meteohub,2013-10-26 18:20:00,
2013-10-26 14:25:00,59.2,29.3,29.87,North,-999,-999.0,-999.0,32,-99.99,,,-99.99,meteohub,2013-10-26 18:25:00,
2013-10-26 14:30:00,59.5,29.7,29.87,North,-999,-999.0,-999.0,32,-99.99,,,-99.99,meteohub,2013-10-26 18:30:00,
2013-10-26 14:35:00,59.9,30.7,29.84,North,-999,-999.0,-999.0,33,-99.99,,,-99.99,meteohub,2013-10-26 18:35:00,
2013-10-26 14:40:00,59.5,29.7,29.84,North,-999,-999.0,-999.0,32,-99.99,,,-99.99,meteohub,2013-10-26 18:40:00,
2013-10-26 14:46:00,59.4,29.5,29.84,North,-999,-999.0,-999.0,32,-99.99,,,-99.99,meteohub,2013-10-26 18:46:00,
2013-10-26 14:51:00,59.5,28.9,29.84,North,-999,-999.0,-999.0,31,-99.99,,,-99.99,meteohub,2013-10-26 18:51:00,
2013-10-26 14:56:00,59.7,30.6,29.84,North,-999,-999.0,-999.0,33,-99.99,,,-99.99,meteohub,2013-10-26 18:56:00,
2013-10-26 15:01:00,59.7,29.8,29.84,North,-999,-999.0,-999.0,32,-99.99,,,-99.99,meteohub,2013-10-26 19:01:00,
2013-10-26 15:06:00,59.5,29.7,29.84,North,-999,-999.0,-999.0,32,-99.99,,,-99.99,meteohub,2013-10-26 19:06:00,
2013-10-26 15:11:00,59.5,30.4,29.84,North,-999,-999.0,-999.0,33,-99.99,,,-99.99,meteohub,2013-10-26 19:11:00,
2013-10-26 15:17:00,59.4,30.4,29.84,North,-999,-999.0,-999.0,33,-99.99,,,-99.99,meteohub,2013-10-26 19:17:00,
2013-10-26 15:22:00,59.4,31.1,29.84,North,-999,-999.0,-999.0,34,-99.99,,,-99.99,meteohub,2013-10-26 19:22:00,
2013-10-26 15:27:00,59.2,30.2,29.84,North,-999,-999.0,-999.0,33,-99.99,,,-99.99,meteohub,2013-10-26 19:27:00,
2013-10-26 15:32:00,59.2,29.3,29.84,North,-999,-999.0,-999.0,32,-99.99,,,-99.99,meteohub,2013-10-26 19:32:00,
2013-10-26 15:37:00,59.0,30.0,29.81,North,-999,-999.0,-999.0,33,-99.99,,,-99.99,meteohub,2013-10-26 19:37:00,
2013-10-26 15:42:00,58.8,29.8,29.81,North,-999,-999.0,-999.0,33,-99.99,,,-99.99,meteohub,2013-10-26 19:42:00,
2013-10-26 15:47:00,59.2,30.2,29.81,North,-999,-999.0,-999.0,33,-99.99,,,-99.99,meteohub,2013-10-26 19:47:00,
2013-10-26 15:52:00,59.2,30.2,29.81,North,-999,-999.0,-999.0,33,-99.99,,,-99.99,meteohub,2013-10-26 19:52:00,
2013-10-26 15:57:00,58.6,29.7,29.81,North,-999,-999.0,-999.0,33,-99.99,,,-99.99,meteohub,2013-10-26 19:57:00,
2013-10-26 16:02:00,58.6,30.4,29.81,North,-999,-999.0,-999.0,34,-99.99,,,-99.99,meteohub,2013-10-26 20:02:00,
2013-10-26 16:07:00,58.8,30.6,29.81,North,-999,-999.0,-999.0,34,-99.99,,,-99.99,meteohub,2013-10-26 20:07:00,
2013-10-26 16:12:00,58.8,30.6,29.81,North,-999,-999.0,-999.0,34,-99.99,,,-99.99,meteohub,2013-10-26 20:12:00,
2013-10-26 16:17:00,58.8,30.6,29.81,North,-999,-999.0,-999.0,34,-99.99,,,-99.99,meteohub,2013-10-26 20:17:00,
2013-10-26 16:22:00,58.6,29.7,29.81,North,-999,-999.0,-999.0,33,-99.99,,,-99.99,meteohub,2013-10-26 20:22:00,
2013-10-26 16:27:00,58.6,30.4,29.81,North,-999,-999.0,-999.0,34,-99.99,,,-99.99,meteohub,2013-10-26 20:27:00,
2013-10-26 16:32:00,58.6,30.4,29.81,North,-999,-999.0,-999.0,34,-99.99,,,-99.99,meteohub,2013-10-26 20:32:00,
2013-10-26 16:37:00,58.5,30.2,29.81,North,-999,-999.0,-999.0,34,-99.99,,,-99.99,meteohub,2013-10-26 20:37:00,
2013-10-26 16:42:00,58.5,30.2,29.81,North,-999,-999.0,-999.0,34,-99.99,,,-99.99,meteohub,2013-10-26 20:42:00,
2013-10-26 16:48:00,58.5,30.2,29.81,North,-999,-999.0,-999.0,34,-99.99,,,-99.99,meteohub,2013-10-26 20:48:00,
2013-10-26 16:53:00,58.5,30.2,29.78,North,-999,-999.0,-999.0,34,-99.99,,,-99.99,meteohub,2013-10-26 20:53:00,
2013-10-26 16:58:00,58.3,29.3,29.78,North,-999,-999.0,-999.0,33,-99.99,,,-99.99,meteohub,2013-10-26 20:58:00,
2013-10-26 17:03:00,58.1,29.1,29.78,North,-999,-999.0,-999.0,33,-99.99,,,-99.99,meteohub,2013-10-26 21:03:00,
2013-10-26 17:08:00,58.1,29.8,29.78,North,-999,-999.0,-999.0,34,-99.99,,,-99.99,meteohub,2013-10-26 21:08:00,
2013-10-26 17:13:00,58.1,29.8,29.78,North,-999,-999.0,-999.0,34,-99.99,,,-99.99,meteohub,2013-10-26 21:13:00,
2013-10-26 17:18:00,57.9,29.8,29.78,North,-999,-999.0,-999.0,34,-99.99,,,-99.99,meteohub,2013-10-26 21:18:00,
2013-10-26 17:24:00,57.7,29.7,29.78,North,-999,-999.0,-999.0,34,-99.99,,,-99.99,meteohub,2013-10-26 21:24:00,
2013-10-26 17:29:00,57.6,28.8,29.78,North,-999,-999.0,-999.0,33,-99.99,,,-99.99,meteohub,2013-10-26 21:29:00,
2013-10-26 17:34:00,57.2,28.4,29.78,North,-999,-999.0,-999.0,33,-99.99,,,-99.99,meteohub,2013-10-26 21:34:00,
2013-10-26 17:39:00,56.8,28.8,29.78,North,-999,-999.0,-999.0,34,-99.99,,,-99.99,meteohub,2013-10-26 21:39:00,
2013-10-26 17:44:00,56.8,28.0,29.78,North,-999,-999.0,-999.0,33,-99.99,,,-99.99,meteohub,2013-10-26 21:44:00,
2013-10-26 17:50:00,56.7,28.6,29.78,North,-999,-999.0,-999.0,34,-99.99,,,-99.99,meteohub,2013-10-26 21:50:00,
2013-10-26 17:55:00,56.5,28.6,29.78,North,-999,-999.0,-999.0,34,-99.99,,,-99.99,meteohub,2013-10-26 21:55:00,
2013-10-26 18:00:00,56.1,28.9,29.78,North,-999,-999.0,-999.0,35,-99.99,,,-99.99,meteohub,2013-10-26 22:00:00,
2013-10-26 18:05:00,55.8,28.6,29.78,North,-999,-999.0,-999.0,35,-99.99,,,-99.99,meteohub,2013-10-26 22:05:00,
2013-10-26 18:10:00,55.6,28.4,29.78,North,-999,-999.0,-999.0,35,-99.99,,,-99.99,meteohub,2013-10-26 22:10:00,
2013-10-26 18:16:00,55.2,28.0,29.78,North,-999,-999.0,-999.0,35,-99.99,,,-99.99,meteohub,2013-10-26 22:16:00,
2013-10-26 18:21:00,55.0,27.9,29.78,North,-999,-999.0,-999.0,35,-99.99,,,-99.99,meteohub,2013-10-26 22:21:00,
2013-10-26 18:26:00,54.7,28.2,29.78,North,-999,-999.0,-999.0,36,-99.99,,,-99.99,meteohub,2013-10-26 22:26:00,
2013-10-26 18:31:00,54.3,28.0,29.78,North,-999,-999.0,-999.0,36,-99.99,,,-99.99,meteohub,2013-10-26 22:31:00,
2013-10-26 18:36:00,54.0,27.7,29.78,North,-999,-999.0,-999.0,36,-99.99,,,-99.99,meteohub,2013-10-26 22:36:00,
2013-10-26 18:41:00,53.8,27.5,29.78,North,-999,-999.0,-999.0,36,-99.99,,,-99.99,meteohub,2013-10-26 22:41:00,
2013-10-26 18:47:00,53.2,27.7,29.78,North,-999,-999.0,-999.0,37,-99.99,,,-99.99,meteohub,2013-10-26 22:47:00,
2013-10-26 18:52:00,52.7,27.1,29.78,North,-999,-999.0,-999.0,37,-99.99,,,-99.99,meteohub,2013-10-26 22:52:00,
2013-10-26 18:57:00,52.3,27.0,29.78,North,-999,-999.0,-999.0,37,-99.99,,,-99.99,meteohub,2013-10-26 22:57:00,
2013-10-26 19:02:00,52.0,26.6,29.78,North,-999,-999.0,-999.0,37,-99.99,,,-99.99,meteohub,2013-10-26 23:02:00,
2013-10-26 19:07:00,51.6,27.0,29.78,North,-999,-999.0,-999.0,38,-99.99,,,-99.99,meteohub,2013-10-26 23:07:00,
2013-10-26 19:12:00,51.1,27.0,29.78,North,-999,-999.0,-999.0,39,-99.99,,,-99.99,meteohub,2013-10-26 23:12:00,
2013-10-26 19:17:00,50.7,26.8,29.78,North,-999,-999.0,-999.0,39,-99.99,,,-99.99,meteohub,2013-10-26 23:17:00,
2013-10-26 19:22:00,50.4,27.0,29.78,North,-999,-999.0,-999.0,40,-99.99,,,-99.99,meteohub,2013-10-26 23:22:00,
2013-10-26 19:27:00,49.8,27.1,29.78,North,-999,-999.0,-999.0,41,-99.99,,,-99.99,meteohub,2013-10-26 23:27:00,
2013-10-26 19:32:00,49.5,26.8,29.78,North,-999,-999.0,-999.0,41,-99.99,,,-99.99,meteohub,2013-10-26 23:32:00,
2013-10-26 19:37:00,49.3,27.1,29.78,North,-999,-999.0,-999.0,42,-99.99,,,-99.99,meteohub,2013-10-26 23:37:00,
2013-10-26 19:42:00,49.1,27.0,29.78,North,-999,-999.0,-999.0,42,-99.99,,,-99.99,meteohub,2013-10-26 23:42:00,
2013-10-26 19:47:00,48.7,27.3,29.78,North,-999,-999.0,-999.0,43,-99.99,,,-99.99,meteohub,2013-10-26 23:47:00,
2013-10-26 19:53:00,48.7,27.3,29.78,North,-999,-999.0,-999.0,43,-99.99,,,-99.99,meteohub,2013-10-26 23:53:00,
2013-10-26 19:58:00,48.6,27.7,29.78,North,-999,-999.0,-999.0,44,-99.99,,,-99.99,meteohub,2013-10-26 23:58:00,
2013-10-26 20:03:00,48.6,28.2,29.78,North,-999,-999.0,-999.0,45,-99.99,,,-99.99,meteohub,2013-10-27 00:03:00,
2013-10-26 20:08:00,48.7,28.9,29.78,North,-999,-999.0,-999.0,46,-99.99,,,-99.99,meteohub,2013-10-27 00:08:00,
2013-10-26 20:13:00,48.2,28.4,29.78,North,-999,-999.0,-999.0,46,-99.99,,,-99.99,meteohub,2013-10-27 00:13:00,
2013-10-26 20:18:00,48.0,28.8,29.78,North,-999,-999.0,-999.0,47,-99.99,,,-99.99,meteohub,2013-10-27 00:18:00,
2013-10-26 20:24:00,47.8,28.6,29.78,North,-999,-999.0,-999.0,47,-99.99,,,-99.99,meteohub,2013-10-27 00:24:00,
2013-10-26 20:29:00,47.7,28.4,29.78,North,-999,-999.0,-999.0,47,-99.99,,,-99.99,meteohub,2013-10-27 00:29:00,
2013-10-26 20:34:00,47.5,28.8,29.78,North,-999,-999.0,-999.0,48,-99.99,,,-99.99,meteohub,2013-10-27 00:34:00,
2013-10-26 20:39:00,47.3,28.6,29.78,North,-999,-999.0,-999.0,48,-99.99,,,-99.99,meteohub,2013-10-27 00:39:00,
2013-10-26 20:44:00,47.1,28.4,29.78,North,-999,-999.0,-999.0,48,-99.99,,,-99.99,meteohub,2013-10-27 00:44:00,
2013-10-26 20:49:00,46.9,28.4,29.78,North,-999,-999.0,-999.0,48,-99.99,,,-99.99,meteohub,2013-10-27 00:49:00,
2013-10-26 20:55:00,46.8,28.6,29.78,North,-999,-999.0,-999.0,49,-99.99,,,-99.99,meteohub,2013-10-27 00:55:00,
2013-10-26 21:00:00,46.4,28.4,29.78,North,-999,-999.0,-999.0,49,-99.99,,,-99.99,meteohub,2013-10-27 01:00:00,
2013-10-26 21:05:00,46.4,28.4,29.78,North,-999,-999.0,-999.0,49,-99.99,,,-99.99,meteohub,2013-10-27 01:05:00,
2013-10-26 21:10:00,46.2,28.6,29.78,North,-999,-999.0,-999.0,50,-99.99,,,-99.99,meteohub,2013-10-27 01:10:00,
2013-10-26 21:15:00,46.0,28.9,29.78,North,-999,-999.0,-999.0,51,-99.99,,,-99.99,meteohub,2013-10-27 01:15:00,
2013-10-26 21:21:00,46.2,29.1,29.78,North,-999,-999.0,-999.0,51,-99.99,,,-99.99,meteohub,2013-10-27 01:21:00,
2013-10-26 21:26:00,46.4,29.3,29.78,North,-999,-999.0,-999.0,51,-99.99,,,-99.99,meteohub,2013-10-27 01:26:00,
2013-10-26 21:31:00,46.8,30.0,29.78,North,-999,-999.0,-999.0,52,-99.99,,,-99.99,meteohub,2013-10-27 01:31:00,
2013-10-26 21:36:00,46.9,30.2,29.78,North,-999,-999.0,-999.0,52,-99.99,,,-99.99,meteohub,2013-10-27 01:36:00,
2013-10-26 21:41:00,47.3,30.6,29.78,North,-999,-999.0,-999.0,52,-99.99,,,-99.99,meteohub,2013-10-27 01:41:00,
2013-10-26 21:47:00,47.8,30.6,29.78,North,-999,-999.0,-999.0,51,-99.99,,,-99.99,meteohub,2013-10-27 01:47:00,
2013-10-26 21:52:00,48.2,30.4,29.75,North,-999,-999.0,-999.0,50,-99.99,,,-99.99,meteohub,2013-10-27 01:52:00,
2013-10-26 21:57:00,48.2,30.4,29.75,North,-999,-999.0,-999.0,50,-99.99,,,-99.99,meteohub,2013-10-27 01:57:00,
2013-10-26 22:02:00,48.4,30.6,29.75,North,-999,-999.0,-999.0,50,-99.99,,,-99.99,meteohub,2013-10-27 02:02:00,
2013-10-26 22:07:00,48.4,30.2,29.75,North,-999,-999.0,-999.0,49,-99.99,,,-99.99,meteohub,2013-10-27 02:07:00,
2013-10-26 22:12:00,48.6,30.4,29.75,North,-999,-999.0,-999.0,49,-99.99,,,-99.99,meteohub,2013-10-27 02:12:00,
2013-10-26 22:18:00,48.6,30.4,29.75,North,-999,-999.0,-999.0,49,-99.99,,,-99.99,meteohub,2013-10-27 02:18:00,
2013-10-26 22:23:00,48.6,30.4,29.75,North,-999,-999.0,-999.0,49,-99.99,,,-99.99,meteohub,2013-10-27 02:23:00,
2013-10-26 22:28:00,48.6,30.4,29.75,North,-999,-999.0,-999.0,49,-99.99,,,-99.99,meteohub,2013-10-27 02:28:00,
2013-10-26 22:33:00,48.6,30.4,29.75,North,-999,-999.0,-999.0,49,-99.99,,,-99.99,meteohub,2013-10-27 02:33:00,
2013-10-26 22:39:00,48.7,30.6,29.75,North,-999,-999.0,-999.0,49,-99.99,,,-99.99,meteohub,2013-10-27 02:39:00,
2013-10-26 22:44:00,48.7,30.9,29.75,North,-999,-999.0,-999.0,50,-99.99,,,-99.99,meteohub,2013-10-27 02:44:00,
2013-10-26 22:49:00,48.7,30.6,29.75,North,-999,-999.0,-999.0,49,-99.99,,,-99.99,meteohub,2013-10-27 02:49:00,
2013-10-26 22:54:00,48.9,30.6,29.75,North,-999,-999.0,-999.0,49,-99.99,,,-99.99,meteohub,2013-10-27 02:54:00,
2013-10-26 22:59:00,49.1,30.7,29.75,North,-999,-999.0,-999.0,49,-99.99,,,-99.99,meteohub,2013-10-27 02:59:00,
2013-10-26 23:05:00,49.3,30.9,29.78,North,-999,-999.0,-999.0,49,-99.99,,,-99.99,meteohub,2013-10-27 03:05:00,
2013-10-26 23:10:00,49.3,30.9,29.78,North,-999,-999.0,-999.0,49,-99.99,,,-99.99,meteohub,2013-10-27 03:10:00,
2013-10-26 23:15:00,49.5,31.1,29.78,North,-999,-999.0,-999.0,49,-99.99,,,-99.99,meteohub,2013-10-27 03:15:00,
2013-10-26 23:20:00,49.6,31.3,29.78,North,-999,-999.0,-999.0,49,-99.99,,,-99.99,meteohub,2013-10-27 03:20:00,
2013-10-26 23:25:00,49.6,31.3,29.78,North,-999,-999.0,-999.0,49,-99.99,,,-99.99,meteohub,2013-10-27 03:25:00,
2013-10-26 23:30:00,49.8,31.5,29.78,North,-999,-999.0,-999.0,49,-99.99,,,-99.99,meteohub,2013-10-27 03:30:00,
2013-10-26 23:36:00,49.8,31.5,29.78,North,-999,-999.0,-999.0,49,-99.99,,,-99.99,meteohub,2013-10-27 03:36:00,
2013-10-26 23:41:00,49.8,30.9,29.78,North,-999,-999.0,-999.0,48,-99.99,,,-99.99,meteohub,2013-10-27 03:41:00,
2013-10-26 23:46:00,49.8,31.5,29.78,North,-999,-999.0,-999.0,49,-99.99,,,-99.99,meteohub,2013-10-27 03:46:00,
2013-10-26 23:51:00,49.8,31.5,29.75,North,-999,-999.0,-999.0,49,-99.99,,,-99.99,meteohub,2013-10-27 03:51:00,
2013-10-26 23:57:00,50.0,31.1,29.75,North,-999,-999.0,-999.0,48,-99.99,,,-99.99,meteohub,2013-10-27 03:57:00,